sensor_id;sensor_type;location;lat;lon;timestamp;P1;durP1;ratioP1;P2;durP2;ratioP2
21266;SDS011;10791;53.108;18.326;2023-09-07T00:01:09;10.65;;;6.35;;
21266;SDS011;10791;53.108;18.326;2023-09-07T00:06:13;10.25;;;6.18;;
21266;SDS011;10791;53.108;18.326;2023-09-07T00:11:17;8.15;;;6.65;;
21266;SDS011;10791;53.108;18.326;2023-09-07T00:16:20;10.15;;;6.93;;
21266;SDS011;10791;53.108;18.326;2023-09-07T00:21:23;11.02;;;7.40;;
21266;SDS011;10791;53.108;18.326;2023-09-07T00:26:27;10.25;;;7.68;;
21266;SDS011;10791;53.108;18.326;2023-09-07T00:31:30;11.65;;;7.30;;
21266;SDS011;10791;53.108;18.326;2023-09-07T00:36:34;9.75;;;6.97;;
21266;SDS011;10791;53.108;18.326;2023-09-07T00:41:37;11.95;;;7.22;;
21266;SDS011;10791;53.108;18.326;2023-09-07T00:46:41;11.27;;;7.80;;
21266;SDS011;10791;53.108;18.326;2023-09-07T00:51:47;10.10;;;6.72;;
21266;SDS011;10791;53.108;18.326;2023-09-07T00:56:50;12.25;;;7.57;;
21266;SDS011;10791;53.108;18.326;2023-09-07T01:01:53;9.10;;;6.70;;
21266;SDS011;10791;53.108;18.326;2023-09-07T01:06:58;10.13;;;7.05;;
21266;SDS011;10791;53.108;18.326;2023-09-07T01:12:06;12.30;;;8.18;;
21266;SDS011;10791;53.108;18.326;2023-09-07T01:17:13;12.60;;;7.38;;
21266;SDS011;10791;53.108;18.326;2023-09-07T01:22:20;10.48;;;7.32;;
21266;SDS011;10791;53.108;18.326;2023-09-07T01:27:26;12.10;;;8.18;;
21266;SDS011;10791;53.108;18.326;2023-09-07T01:32:30;13.40;;;8.00;;
21266;SDS011;10791;53.108;18.326;2023-09-07T01:37:33;12.55;;;7.90;;
21266;SDS011;10791;53.108;18.326;2023-09-07T01:42:36;12.70;;;8.38;;
21266;SDS011;10791;53.108;18.326;2023-09-07T01:47:40;12.40;;;7.90;;
21266;SDS011;10791;53.108;18.326;2023-09-07T01:52:45;12.10;;;7.90;;
21266;SDS011;10791;53.108;18.326;2023-09-07T01:57:51;15.18;;;8.15;;
21266;SDS011;10791;53.108;18.326;2023-09-07T02:02:55;13.73;;;9.05;;
21266;SDS011;10791;53.108;18.326;2023-09-07T02:07:59;15.88;;;8.80;;
21266;SDS011;10791;53.108;18.326;2023-09-07T02:13:03;12.60;;;8.80;;
21266;SDS011;10791;53.108;18.326;2023-09-07T02:18:06;12.33;;;7.90;;
21266;SDS011;10791;53.108;18.326;2023-09-07T02:23:09;11.50;;;8.75;;
21266;SDS011;10791;53.108;18.326;2023-09-07T02:28:12;13.27;;;8.57;;
21266;SDS011;10791;53.108;18.326;2023-09-07T02:33:16;14.38;;;8.85;;
21266;SDS011;10791;53.108;18.326;2023-09-07T02:38:19;12.25;;;8.82;;
21266;SDS011;10791;53.108;18.326;2023-09-07T02:43:23;10.88;;;7.40;;
21266;SDS011;10791;53.108;18.326;2023-09-07T02:48:27;12.15;;;8.23;;
21266;SDS011;10791;53.108;18.326;2023-09-07T02:53:30;12.23;;;7.65;;
21266;SDS011;10791;53.108;18.326;2023-09-07T02:58:33;12.52;;;8.27;;
21266;SDS011;10791;53.108;18.326;2023-09-07T03:03:37;10.37;;;6.77;;
21266;SDS011;10791;53.108;18.326;2023-09-07T03:08:43;13.73;;;8.27;;
21266;SDS011;10791;53.108;18.326;2023-09-07T03:13:47;10.50;;;6.93;;
21266;SDS011;10791;53.108;18.326;2023-09-07T03:18:51;15.27;;;8.63;;
21266;SDS011;10791;53.108;18.326;2023-09-07T03:23:54;13.00;;;7.80;;
21266;SDS011;10791;53.108;18.326;2023-09-07T03:28:58;10.73;;;7.93;;
21266;SDS011;10791;53.108;18.326;2023-09-07T03:34:02;11.67;;;7.67;;
21266;SDS011;10791;53.108;18.326;2023-09-07T03:39:05;8.17;;;6.20;;
21266;SDS011;10791;53.108;18.326;2023-09-07T03:44:10;11.00;;;7.17;;
21266;SDS011;10791;53.108;18.326;2023-09-07T03:49:13;12.02;;;7.38;;
21266;SDS011;10791;53.108;18.326;2023-09-07T03:54:17;13.03;;;8.17;;
21266;SDS011;10791;53.108;18.326;2023-09-07T03:59:20;14.47;;;7.43;;
21266;SDS011;10791;53.108;18.326;2023-09-07T04:09:56;14.63;;;7.87;;
21266;SDS011;10791;53.108;18.326;2023-09-07T04:15:00;14.05;;;7.97;;
21266;SDS011;10791;53.108;18.326;2023-09-07T04:20:08;12.65;;;8.02;;
21266;SDS011;10791;53.108;18.326;2023-09-07T04:25:14;13.45;;;8.23;;
21266;SDS011;10791;53.108;18.326;2023-09-07T04:30:17;10.60;;;7.57;;
21266;SDS011;10791;53.108;18.326;2023-09-07T04:35:20;12.13;;;7.53;;
21266;SDS011;10791;53.108;18.326;2023-09-07T04:40:24;13.10;;;7.73;;
21266;SDS011;10791;53.108;18.326;2023-09-07T04:45:27;10.33;;;6.67;;
21266;SDS011;10791;53.108;18.326;2023-09-07T04:50:31;12.53;;;7.73;;
21266;SDS011;10791;53.108;18.326;2023-09-07T04:55:36;10.90;;;7.00;;
21266;SDS011;10791;53.108;18.326;2023-09-07T05:00:41;12.50;;;7.85;;
21266;SDS011;10791;53.108;18.326;2023-09-07T05:05:44;11.27;;;7.23;;
21266;SDS011;10791;53.108;18.326;2023-09-07T05:10:56;12.35;;;7.40;;
21266;SDS011;10791;53.108;18.326;2023-09-07T05:16:02;11.73;;;7.57;;
21266;SDS011;10791;53.108;18.326;2023-09-07T05:21:11;11.40;;;7.40;;
21266;SDS011;10791;53.108;18.326;2023-09-07T05:26:21;10.98;;;7.80;;
21266;SDS011;10791;53.108;18.326;2023-09-07T05:31:28;13.18;;;7.68;;
21266;SDS011;10791;53.108;18.326;2023-09-07T05:36:31;13.87;;;8.33;;
21266;SDS011;10791;53.108;18.326;2023-09-07T05:41:35;13.43;;;8.83;;
21266;SDS011;10791;53.108;18.326;2023-09-07T05:46:38;14.18;;;9.43;;
21266;SDS011;10791;53.108;18.326;2023-09-07T05:51:42;16.80;;;9.52;;
21266;SDS011;10791;53.108;18.326;2023-09-07T05:56:48;18.33;;;9.68;;
21266;SDS011;10791;53.108;18.326;2023-09-07T06:01:52;13.30;;;8.95;;
21266;SDS011;10791;53.108;18.326;2023-09-07T06:06:56;16.13;;;9.30;;
21266;SDS011;10791;53.108;18.326;2023-09-07T06:11:59;13.98;;;8.90;;
21266;SDS011;10791;53.108;18.326;2023-09-07T06:17:03;16.15;;;9.95;;
21266;SDS011;10791;53.108;18.326;2023-09-07T06:22:06;14.75;;;8.48;;
21266;SDS011;10791;53.108;18.326;2023-09-07T06:27:09;16.10;;;9.40;;
21266;SDS011;10791;53.108;18.326;2023-09-07T06:32:12;14.70;;;10.18;;
21266;SDS011;10791;53.108;18.326;2023-09-07T06:37:16;17.15;;;9.50;;
21266;SDS011;10791;53.108;18.326;2023-09-07T06:42:20;15.40;;;10.82;;
21266;SDS011;10791;53.108;18.326;2023-09-07T06:47:23;16.88;;;10.15;;
21266;SDS011;10791;53.108;18.326;2023-09-07T06:52:27;14.73;;;9.50;;
21266;SDS011;10791;53.108;18.326;2023-09-07T06:57:30;15.23;;;9.48;;
21266;SDS011;10791;53.108;18.326;2023-09-07T07:02:34;18.50;;;10.18;;
21266;SDS011;10791;53.108;18.326;2023-09-07T07:07:38;16.98;;;10.93;;
21266;SDS011;10791;53.108;18.326;2023-09-07T07:12:42;15.63;;;9.40;;
21266;SDS011;10791;53.108;18.326;2023-09-07T07:17:46;16.08;;;10.45;;
21266;SDS011;10791;53.108;18.326;2023-09-07T07:22:49;16.45;;;9.57;;
21266;SDS011;10791;53.108;18.326;2023-09-07T07:27:53;17.20;;;10.68;;
21266;SDS011;10791;53.108;18.326;2023-09-07T07:32:56;14.05;;;10.13;;
21266;SDS011;10791;53.108;18.326;2023-09-07T07:37:59;16.23;;;10.68;;
21266;SDS011;10791;53.108;18.326;2023-09-07T07:43:03;11.30;;;9.50;;
21266;SDS011;10791;53.108;18.326;2023-09-07T07:48:07;18.55;;;10.90;;
21266;SDS011;10791;53.108;18.326;2023-09-07T07:53:14;14.70;;;10.10;;
21266;SDS011;10791;53.108;18.326;2023-09-07T07:58:17;13.20;;;9.48;;
21266;SDS011;10791;53.108;18.326;2023-09-07T08:03:21;13.23;;;10.02;;
21266;SDS011;10791;53.108;18.326;2023-09-07T08:08:24;14.00;;;9.68;;
21266;SDS011;10791;53.108;18.326;2023-09-07T08:13:27;13.65;;;9.85;;
21266;SDS011;10791;53.108;18.326;2023-09-07T08:18:32;15.50;;;9.82;;
21266;SDS011;10791;53.108;18.326;2023-09-07T08:23:38;15.25;;;9.02;;
21266;SDS011;10791;53.108;18.326;2023-09-07T08:28:41;14.00;;;9.65;;
21266;SDS011;10791;53.108;18.326;2023-09-07T08:33:44;11.45;;;9.27;;
21266;SDS011;10791;53.108;18.326;2023-09-07T08:38:47;11.23;;;8.65;;
21266;SDS011;10791;53.108;18.326;2023-09-07T08:43:53;10.88;;;8.13;;
21266;SDS011;10791;53.108;18.326;2023-09-07T08:48:57;10.27;;;7.50;;
21266;SDS011;10791;53.108;18.326;2023-09-07T08:54:07;13.77;;;8.32;;
21266;SDS011;10791;53.108;18.326;2023-09-07T08:59:12;12.85;;;8.18;;
21266;SDS011;10791;53.108;18.326;2023-09-07T09:04:16;11.15;;;7.47;;
21266;SDS011;10791;53.108;18.326;2023-09-07T09:09:23;9.15;;;6.50;;
21266;SDS011;10791;53.108;18.326;2023-09-07T09:14:27;9.27;;;6.35;;
21266;SDS011;10791;53.108;18.326;2023-09-07T09:19:33;9.68;;;7.03;;
21266;SDS011;10791;53.108;18.326;2023-09-07T09:24:38;8.73;;;6.68;;
21266;SDS011;10791;53.108;18.326;2023-09-07T09:29:41;7.90;;;5.45;;
21266;SDS011;10791;53.108;18.326;2023-09-07T09:34:44;6.68;;;5.40;;
21266;SDS011;10791;53.108;18.326;2023-09-07T09:39:49;7.35;;;5.47;;
21266;SDS011;10791;53.108;18.326;2023-09-07T09:44:56;6.93;;;5.15;;
21266;SDS011;10791;53.108;18.326;2023-09-07T09:50:01;6.68;;;4.80;;
21266;SDS011;10791;53.108;18.326;2023-09-07T09:55:09;144.60;;;15.80;;
21266;SDS011;10791;53.108;18.326;2023-09-07T10:00:15;7.75;;;4.30;;
21266;SDS011;10791;53.108;18.326;2023-09-07T10:05:20;8.25;;;3.97;;
21266;SDS011;10791;53.108;18.326;2023-09-07T10:10:31;4.78;;;3.45;;
21266;SDS011;10791;53.108;18.326;2023-09-07T10:15:37;43.65;;;6.07;;
21266;SDS011;10791;53.108;18.326;2023-09-07T10:26:02;5.63;;;4.28;;
21266;SDS011;10791;53.108;18.326;2023-09-07T10:36:20;6.00;;;3.92;;
21266;SDS011;10791;53.108;18.326;2023-09-07T10:41:25;6.47;;;3.60;;
21266;SDS011;10791;53.108;18.326;2023-09-07T10:46:28;5.90;;;3.40;;
21266;SDS011;10791;53.108;18.326;2023-09-07T10:51:32;5.70;;;3.53;;
21266;SDS011;10791;53.108;18.326;2023-09-07T10:56:35;6.50;;;3.97;;
21266;SDS011;10791;53.108;18.326;2023-09-07T11:01:39;4.60;;;3.47;;
21266;SDS011;10791;53.108;18.326;2023-09-07T11:06:43;8.75;;;3.50;;
21266;SDS011;10791;53.108;18.326;2023-09-07T11:11:48;4.80;;;3.42;;
21266;SDS011;10791;53.108;18.326;2023-09-07T11:16:55;5.70;;;3.30;;
21266;SDS011;10791;53.108;18.326;2023-09-07T11:21:58;5.82;;;2.90;;
21266;SDS011;10791;53.108;18.326;2023-09-07T11:27:03;6.25;;;3.42;;
21266;SDS011;10791;53.108;18.326;2023-09-07T11:32:07;9.13;;;3.25;;
21266;SDS011;10791;53.108;18.326;2023-09-07T11:37:12;5.47;;;3.90;;
21266;SDS011;10791;53.108;18.326;2023-09-07T11:42:16;4.28;;;3.63;;
21266;SDS011;10791;53.108;18.326;2023-09-07T11:47:19;6.60;;;3.47;;
21266;SDS011;10791;53.108;18.326;2023-09-07T11:52:22;6.00;;;3.35;;
21266;SDS011;10791;53.108;18.326;2023-09-07T11:57:26;3.95;;;2.95;;
21266;SDS011;10791;53.108;18.326;2023-09-07T12:02:29;4.75;;;3.15;;
21266;SDS011;10791;53.108;18.326;2023-09-07T12:07:33;5.93;;;2.88;;
21266;SDS011;10791;53.108;18.326;2023-09-07T12:12:37;4.80;;;3.28;;
21266;SDS011;10791;53.108;18.326;2023-09-07T12:17:41;55.85;;;7.35;;
21266;SDS011;10791;53.108;18.326;2023-09-07T12:22:44;6.85;;;3.03;;
21266;SDS011;10791;53.108;18.326;2023-09-07T12:27:48;5.95;;;3.03;;
21266;SDS011;10791;53.108;18.326;2023-09-07T12:32:56;7.43;;;3.22;;
21266;SDS011;10791;53.108;18.326;2023-09-07T12:37:59;4.60;;;3.45;;
21266;SDS011;10791;53.108;18.326;2023-09-07T12:43:02;4.20;;;3.40;;
21266;SDS011;10791;53.108;18.326;2023-09-07T12:48:06;4.53;;;3.42;;
21266;SDS011;10791;53.108;18.326;2023-09-07T12:53:09;4.18;;;3.03;;
21266;SDS011;10791;53.108;18.326;2023-09-07T12:58:13;3.95;;;3.22;;
21266;SDS011;10791;53.108;18.326;2023-09-07T13:03:16;5.50;;;3.47;;
21266;SDS011;10791;53.108;18.326;2023-09-07T13:08:20;4.22;;;2.80;;
21266;SDS011;10791;53.108;18.326;2023-09-07T13:13:23;7.28;;;3.22;;
21266;SDS011;10791;53.108;18.326;2023-09-07T13:18:32;5.63;;;3.38;;
21266;SDS011;10791;53.108;18.326;2023-09-07T13:23:35;4.47;;;3.35;;
21266;SDS011;10791;53.108;18.326;2023-09-07T13:28:38;5.10;;;3.17;;
21266;SDS011;10791;53.108;18.326;2023-09-07T13:33:41;5.28;;;3.80;;
21266;SDS011;10791;53.108;18.326;2023-09-07T13:38:44;5.28;;;3.60;;
21266;SDS011;10791;53.108;18.326;2023-09-07T13:43:48;5.07;;;3.50;;
21266;SDS011;10791;53.108;18.326;2023-09-07T13:48:51;6.55;;;3.40;;
21266;SDS011;10791;53.108;18.326;2023-09-07T13:53:55;6.25;;;3.47;;
21266;SDS011;10791;53.108;18.326;2023-09-07T13:58:58;3.42;;;2.90;;
21266;SDS011;10791;53.108;18.326;2023-09-07T14:04:02;7.53;;;3.15;;
21266;SDS011;10791;53.108;18.326;2023-09-07T14:09:05;6.25;;;3.40;;
21266;SDS011;10791;53.108;18.326;2023-09-07T14:14:09;6.15;;;2.72;;
21266;SDS011;10791;53.108;18.326;2023-09-07T14:19:13;4.78;;;3.15;;
21266;SDS011;10791;53.108;18.326;2023-09-07T14:24:16;6.78;;;3.40;;
21266;SDS011;10791;53.108;18.326;2023-09-07T14:29:20;4.13;;;3.08;;
21266;SDS011;10791;53.108;18.326;2023-09-07T14:34:23;3.88;;;2.75;;
21266;SDS011;10791;53.108;18.326;2023-09-07T14:39:28;4.80;;;3.35;;
21266;SDS011;10791;53.108;18.326;2023-09-07T14:44:32;5.00;;;2.92;;
21266;SDS011;10791;53.108;18.326;2023-09-07T14:49:35;4.75;;;2.92;;
21266;SDS011;10791;53.108;18.326;2023-09-07T14:54:39;7.75;;;3.30;;
21266;SDS011;10791;53.108;18.326;2023-09-07T14:59:44;6.72;;;3.25;;
21266;SDS011;10791;53.108;18.326;2023-09-07T15:04:48;4.82;;;3.00;;
21266;SDS011;10791;53.108;18.326;2023-09-07T15:09:52;6.25;;;2.97;;
21266;SDS011;10791;53.108;18.326;2023-09-07T15:14:56;23.33;;;4.95;;
21266;SDS011;10791;53.108;18.326;2023-09-07T15:19:59;7.60;;;3.63;;
21266;SDS011;10791;53.108;18.326;2023-09-07T15:25:03;4.53;;;3.15;;
21266;SDS011;10791;53.108;18.326;2023-09-07T15:30:07;4.78;;;2.72;;
21266;SDS011;10791;53.108;18.326;2023-09-07T15:35:11;6.78;;;3.33;;
21266;SDS011;10791;53.108;18.326;2023-09-07T15:40:15;15.20;;;3.28;;
21266;SDS011;10791;53.108;18.326;2023-09-07T15:45:19;4.85;;;3.25;;
21266;SDS011;10791;53.108;18.326;2023-09-07T15:50:22;5.40;;;2.90;;
21266;SDS011;10791;53.108;18.326;2023-09-07T15:55:26;4.13;;;3.03;;
21266;SDS011;10791;53.108;18.326;2023-09-07T16:00:30;3.30;;;2.80;;
21266;SDS011;10791;53.108;18.326;2023-09-07T16:05:37;4.53;;;3.20;;
21266;SDS011;10791;53.108;18.326;2023-09-07T16:10:41;4.70;;;3.45;;
21266;SDS011;10791;53.108;18.326;2023-09-07T16:15:45;10.40;;;4.03;;
21266;SDS011;10791;53.108;18.326;2023-09-07T16:20:49;4.90;;;3.55;;
21266;SDS011;10791;53.108;18.326;2023-09-07T16:25:52;12.10;;;4.32;;
21266;SDS011;10791;53.108;18.326;2023-09-07T16:30:57;8.77;;;3.58;;
21266;SDS011;10791;53.108;18.326;2023-09-07T16:36:01;9.90;;;3.25;;
21266;SDS011;10791;53.108;18.326;2023-09-07T16:41:05;8.35;;;3.28;;
21266;SDS011;10791;53.108;18.326;2023-09-07T16:46:09;5.72;;;2.90;;
21266;SDS011;10791;53.108;18.326;2023-09-07T16:51:13;6.05;;;3.28;;
21266;SDS011;10791;53.108;18.326;2023-09-07T16:56:17;5.35;;;3.22;;
21266;SDS011;10791;53.108;18.326;2023-09-07T17:01:23;20.60;;;4.45;;
21266;SDS011;10791;53.108;18.326;2023-09-07T17:06:27;14.25;;;6.60;;
21266;SDS011;10791;53.108;18.326;2023-09-07T17:11:32;12.07;;;5.82;;
21266;SDS011;10791;53.108;18.326;2023-09-07T17:16:38;10.55;;;4.80;;
21266;SDS011;10791;53.108;18.326;2023-09-07T17:21:41;9.13;;;4.63;;
21266;SDS011;10791;53.108;18.326;2023-09-07T17:26:45;5.85;;;4.47;;
21266;SDS011;10791;53.108;18.326;2023-09-07T17:31:49;7.28;;;4.78;;
21266;SDS011;10791;53.108;18.326;2023-09-07T17:36:53;8.57;;;4.88;;
21266;SDS011;10791;53.108;18.326;2023-09-07T17:41:57;9.43;;;5.07;;
21266;SDS011;10791;53.108;18.326;2023-09-07T17:47:01;7.22;;;5.93;;
21266;SDS011;10791;53.108;18.326;2023-09-07T17:52:05;12.63;;;6.43;;
21266;SDS011;10791;53.108;18.326;2023-09-07T17:57:09;8.60;;;4.93;;
21266;SDS011;10791;53.108;18.326;2023-09-07T18:02:18;8.65;;;5.03;;
21266;SDS011;10791;53.108;18.326;2023-09-07T18:07:25;11.65;;;6.22;;
21266;SDS011;10791;53.108;18.326;2023-09-07T18:12:29;8.43;;;5.25;;
21266;SDS011;10791;53.108;18.326;2023-09-07T18:17:32;10.38;;;5.63;;
21266;SDS011;10791;53.108;18.326;2023-09-07T18:22:38;11.60;;;5.40;;
21266;SDS011;10791;53.108;18.326;2023-09-07T18:27:43;9.50;;;5.68;;
21266;SDS011;10791;53.108;18.326;2023-09-07T18:32:47;10.48;;;6.18;;
21266;SDS011;10791;53.108;18.326;2023-09-07T18:37:53;10.20;;;5.53;;
21266;SDS011;10791;53.108;18.326;2023-09-07T18:42:57;11.10;;;6.75;;
21266;SDS011;10791;53.108;18.326;2023-09-07T18:48:02;11.20;;;7.78;;
21266;SDS011;10791;53.108;18.326;2023-09-07T18:53:06;10.88;;;7.40;;
21266;SDS011;10791;53.108;18.326;2023-09-07T18:58:12;12.40;;;6.88;;
21266;SDS011;10791;53.108;18.326;2023-09-07T19:03:16;9.23;;;6.97;;
21266;SDS011;10791;53.108;18.326;2023-09-07T19:08:21;15.25;;;8.35;;
21266;SDS011;10791;53.108;18.326;2023-09-07T19:13:26;23.67;;;9.25;;
21266;SDS011;10791;53.108;18.326;2023-09-07T19:18:30;22.90;;;10.38;;
21266;SDS011;10791;53.108;18.326;2023-09-07T19:23:35;21.23;;;11.25;;
21266;SDS011;10791;53.108;18.326;2023-09-07T19:28:45;20.55;;;11.23;;
21266;SDS011;10791;53.108;18.326;2023-09-07T19:33:52;18.17;;;10.65;;
21266;SDS011;10791;53.108;18.326;2023-09-07T19:38:59;16.05;;;10.52;;
21266;SDS011;10791;53.108;18.326;2023-09-07T19:44:03;17.92;;;10.27;;
21266;SDS011;10791;53.108;18.326;2023-09-07T19:49:08;18.25;;;10.68;;
21266;SDS011;10791;53.108;18.326;2023-09-07T19:54:13;15.48;;;10.45;;
21266;SDS011;10791;53.108;18.326;2023-09-07T19:59:18;20.30;;;10.90;;
21266;SDS011;10791;53.108;18.326;2023-09-07T20:04:22;15.68;;;9.77;;
21266;SDS011;10791;53.108;18.326;2023-09-07T20:09:29;15.68;;;10.35;;
21266;SDS011;10791;53.108;18.326;2023-09-07T20:14:33;20.30;;;11.43;;
21266;SDS011;10791;53.108;18.326;2023-09-07T20:19:40;15.25;;;10.27;;
21266;SDS011;10791;53.108;18.326;2023-09-07T20:24:45;13.38;;;9.38;;
21266;SDS011;10791;53.108;18.326;2023-09-07T20:29:51;17.05;;;9.98;;
21266;SDS011;10791;53.108;18.326;2023-09-07T20:34:55;12.55;;;8.90;;
21266;SDS011;10791;53.108;18.326;2023-09-07T20:40:00;17.25;;;9.02;;
21266;SDS011;10791;53.108;18.326;2023-09-07T20:45:05;16.42;;;9.85;;
21266;SDS011;10791;53.108;18.326;2023-09-07T20:50:09;18.38;;;10.05;;
21266;SDS011;10791;53.108;18.326;2023-09-07T20:55:13;14.20;;;10.07;;
21266;SDS011;10791;53.108;18.326;2023-09-07T21:00:16;15.73;;;10.40;;
21266;SDS011;10791;53.108;18.326;2023-09-07T21:05:20;14.43;;;8.60;;
21266;SDS011;10791;53.108;18.326;2023-09-07T21:10:23;14.57;;;9.80;;
21266;SDS011;10791;53.108;18.326;2023-09-07T21:15:27;13.40;;;8.98;;
21266;SDS011;10791;53.108;18.326;2023-09-07T21:20:30;13.00;;;8.45;;
21266;SDS011;10791;53.108;18.326;2023-09-07T21:25:33;19.88;;;9.40;;
21266;SDS011;10791;53.108;18.326;2023-09-07T21:30:37;11.88;;;8.98;;
21266;SDS011;10791;53.108;18.326;2023-09-07T21:35:40;14.63;;;8.82;;
21266;SDS011;10791;53.108;18.326;2023-09-07T21:40:43;13.63;;;9.13;;
21266;SDS011;10791;53.108;18.326;2023-09-07T21:45:47;17.33;;;9.60;;
21266;SDS011;10791;53.108;18.326;2023-09-07T21:50:51;12.27;;;8.65;;
21266;SDS011;10791;53.108;18.326;2023-09-07T21:55:55;11.07;;;7.93;;
21266;SDS011;10791;53.108;18.326;2023-09-07T22:00:58;13.82;;;8.90;;
21266;SDS011;10791;53.108;18.326;2023-09-07T22:06:02;15.43;;;9.20;;
21266;SDS011;10791;53.108;18.326;2023-09-07T22:11:05;17.63;;;9.30;;
21266;SDS011;10791;53.108;18.326;2023-09-07T22:16:08;10.77;;;8.15;;
21266;SDS011;10791;53.108;18.326;2023-09-07T22:21:12;14.45;;;11.25;;
21266;SDS011;10791;53.108;18.326;2023-09-07T22:26:15;13.75;;;9.32;;
21266;SDS011;10791;53.108;18.326;2023-09-07T22:31:18;14.43;;;10.38;;
21266;SDS011;10791;53.108;18.326;2023-09-07T22:36:22;16.90;;;10.65;;
21266;SDS011;10791;53.108;18.326;2023-09-07T22:41:25;15.73;;;10.45;;
21266;SDS011;10791;53.108;18.326;2023-09-07T22:46:28;14.30;;;10.23;;
21266;SDS011;10791;53.108;18.326;2023-09-07T22:51:31;13.82;;;9.65;;
21266;SDS011;10791;53.108;18.326;2023-09-07T22:56:35;19.85;;;10.35;;
21266;SDS011;10791;53.108;18.326;2023-09-07T23:01:38;19.40;;;10.93;;
21266;SDS011;10791;53.108;18.326;2023-09-07T23:06:42;16.67;;;10.98;;
21266;SDS011;10791;53.108;18.326;2023-09-07T23:11:45;17.30;;;11.35;;
21266;SDS011;10791;53.108;18.326;2023-09-07T23:16:48;18.13;;;11.52;;
21266;SDS011;10791;53.108;18.326;2023-09-07T23:21:53;17.85;;;11.55;;
21266;SDS011;10791;53.108;18.326;2023-09-07T23:26:57;21.17;;;13.48;;
21266;SDS011;10791;53.108;18.326;2023-09-07T23:32:00;22.15;;;13.38;;
21266;SDS011;10791;53.108;18.326;2023-09-07T23:37:04;22.88;;;13.30;;
21266;SDS011;10791;53.108;18.326;2023-09-07T23:42:08;23.30;;;13.93;;
21266;SDS011;10791;53.108;18.326;2023-09-07T23:47:12;21.00;;;13.02;;
21266;SDS011;10791;53.108;18.326;2023-09-07T23:52:15;22.90;;;12.48;;
21266;SDS011;10791;53.108;18.326;2023-09-07T23:57:20;21.13;;;12.53;;
